Time;durP1;ratioP1;P1;durP2;ratioP2;P2;SDS_P1;SDS_P2;PMS_P1;PMS_P2;Temp;Humidity;BMP_temperature;BMP_pressure;BME280_temperature;BME280_humidity;BME280_pressure;Samples;Min_cycle;Max_cycle;Signal;HPM_P1;HPM_P2
2021/03/29 00:00:18;;;;;;;18.45;6.35;;;10.90;99.90;;;;;;5035244;28;20215;-76
2021/03/29 00:02:43;;;;;;;14.32;6.00;;;10.80;99.90;;;;;;5035648;28;20172;-76
2021/03/29 00:05:10;;;;;;;15.23;5.97;;;10.80;99.90;;;;;;5035281;28;20214;-76
2021/03/29 00:07:38;;;;;;;11.38;5.72;;;10.80;99.90;;;;;;5017812;28;20175;-76
2021/03/29 00:10:08;;;;;;;16.73;5.80;;;10.70;99.90;;;;;;5017321;28;20203;-77
2021/03/29 00:12:36;;;;;;;16.85;5.47;;;10.70;99.90;;;;;;5035261;28;20230;-75
2021/03/29 00:15:04;;;;;;;14.27;6.00;;;10.60;99.90;;;;;;5035091;28;20172;-76
2021/03/29 00:17:30;;;;;;;16.90;6.20;;;10.60;99.90;;;;;;5017230;28;20620;-75
2021/03/29 00:19:56;;;;;;;18.08;6.43;;;10.50;99.90;;;;;;5035035;28;20206;-76
2021/03/29 00:22:22;;;;;;;13.75;6.00;;;10.50;99.90;;;;;;5035278;28;20255;-75
2021/03/29 00:24:49;;;;;;;15.63;5.75;;;10.40;99.90;;;;;;5017438;28;20251;-76
2021/03/29 00:27:15;;;;;;;13.65;6.28;;;10.40;99.90;;;;;;5034550;28;20188;-76
2021/03/29 00:29:41;;;;;;;11.43;6.47;;;10.40;99.90;;;;;;5034602;28;20521;-76
2021/03/29 00:32:08;;;;;;;17.13;6.07;;;10.30;99.90;;;;;;5000285;28;20278;-75
2021/03/29 00:34:35;;;;;;;10.73;5.90;;;10.40;99.90;;;;;;5017271;28;20180;-75
2021/03/29 00:37:01;;;;;;;16.10;6.07;;;10.40;99.90;;;;;;5017263;28;20214;-75
2021/03/29 00:39:29;;;;;;;12.35;5.82;;;10.40;99.90;;;;;;5034498;28;20191;-75
2021/03/29 00:41:55;;;;;;;14.95;6.38;;;10.40;99.90;;;;;;5034468;28;20168;-75
2021/03/29 00:44:22;;;;;;;19.17;6.38;;;10.40;99.90;;;;;;5035106;28;20613;-75
2021/03/29 00:46:49;;;;;;;14.15;5.35;;;10.40;99.90;;;;;;5034555;28;20262;-76
2021/03/29 00:49:15;;;;;;;9.90;5.93;;;10.40;99.90;;;;;;5034077;28;20167;-75
2021/03/29 00:51:42;;;;;;;18.48;5.43;;;10.40;99.90;;;;;;5034342;28;20696;-76
2021/03/29 00:54:09;;;;;;;18.83;5.32;;;10.30;99.90;;;;;;5016809;28;20176;-76
2021/03/29 00:56:36;;;;;;;18.05;5.72;;;10.40;99.90;;;;;;5034035;28;20179;-76
2021/03/29 00:59:03;;;;;;;14.52;5.60;;;10.50;99.90;;;;;;5034671;28;20569;-76
2021/03/29 01:01:36;;;;;;;9.85;4.80;;;10.40;99.90;;;;;;5016775;28;20674;-77
2021/03/29 01:04:04;;;;;;;21.88;6.03;;;10.40;99.90;;;;;;5034550;28;20151;-76
2021/03/29 01:06:33;;;;;;;13.43;5.55;;;10.40;99.90;;;;;;5034236;28;20173;-76
2021/03/29 01:09:06;;;;;;;17.83;6.10;;;10.40;99.90;;;;;;5034424;28;20204;-75
2021/03/29 01:11:37;;;;;;;8.07;4.75;;;10.30;99.90;;;;;;5016074;28;20286;-76
2021/03/29 01:14:04;;;;;;;10.85;4.60;;;10.20;99.90;;;;;;5034080;28;20569;-75
2021/03/29 01:16:39;;;;;;;13.07;4.88;;;10.30;99.90;;;;;;5015752;28;20176;-75
2021/03/29 01:19:12;;;;;;;8.25;5.20;;;10.30;99.90;;;;;;5033907;28;20176;-76
2021/03/29 01:21:57;;;;;;;8.50;5.13;;;10.40;99.90;;;;;;5034295;28;20168;-75
2021/03/29 01:24:44;;;;;;;17.25;5.43;;;10.50;99.90;;;;;;5033866;28;20168;-75
2021/03/29 01:27:14;;;;;;;10.10;4.95;;;10.50;99.90;;;;;;5016486;28;20247;-75
2021/03/29 01:29:41;;;;;;;9.98;4.72;;;10.60;99.90;;;;;;5015923;28;20259;-76
2021/03/29 01:32:08;;;;;;;15.50;4.85;;;10.60;99.90;;;;;;5015953;28;20322;-75
2021/03/29 01:34:37;;;;;;;11.27;4.55;;;10.60;99.90;;;;;;5034211;28;20301;-75
2021/03/29 01:37:04;;;;;;;14.00;4.70;;;10.60;99.90;;;;;;5034166;28;20171;-75
2021/03/29 01:39:30;;;;;;;14.40;5.13;;;10.60;99.90;;;;;;5015550;28;20687;-77
2021/03/29 01:41:57;;;;;;;18.58;4.72;;;10.50;99.90;;;;;;5015390;28;20556;-75
2021/03/29 01:44:24;;;;;;;16.65;4.72;;;10.40;99.90;;;;;;5015329;28;20180;-75
2021/03/29 01:46:50;;;;;;;17.10;5.00;;;10.40;99.90;;;;;;5015700;28;20187;-74
2021/03/29 01:49:17;;;;;;;10.00;4.18;;;10.40;99.90;;;;;;5033291;28;20176;-75
2021/03/29 01:51:43;;;;;;;16.90;4.43;;;10.30;99.90;;;;;;5016001;28;20210;-76
2021/03/29 01:54:10;;;;;;;6.32;4.03;;;10.30;99.90;;;;;;5033670;28;20168;-75
2021/03/29 01:56:35;;;;;;;12.82;3.67;;;10.20;99.90;;;;;;5016288;28;20540;-76
2021/03/29 01:59:01;;;;;;;6.40;3.90;;;10.20;99.90;;;;;;5036185;28;20176;-75
2021/03/29 02:01:27;;;;;;;8.00;3.85;;;10.10;99.90;;;;;;5037818;28;20573;-75
2021/03/29 02:03:53;;;;;;;10.95;4.05;;;10.10;99.90;;;;;;5018556;28;20728;-75
2021/03/29 02:06:19;;;;;;;9.77;3.63;;;10.00;99.90;;;;;;5016063;28;20179;-77
2021/03/29 02:08:46;;;;;;;9.20;3.22;;;10.00;99.90;;;;;;5033204;28;20187;-76
2021/03/29 02:11:13;;;;;;;4.57;3.28;;;10.00;99.90;;;;;;5032497;28;20285;-75
2021/03/29 02:13:43;;;;;;;8.18;3.53;;;10.00;99.90;;;;;;5032850;28;20187;-76
2021/03/29 02:16:11;;;;;;;8.30;3.00;;;10.00;99.90;;;;;;5033457;28;20160;-76
2021/03/29 02:18:43;;;;;;;13.30;3.78;;;10.00;99.90;;;;;;5015519;28;20639;-77
2021/03/29 02:21:12;;;;;;;14.57;3.47;;;10.00;99.90;;;;;;5032627;28;20251;-76
2021/03/29 02:23:39;;;;;;;13.80;3.55;;;10.00;99.90;;;;;;5033334;28;20214;-76
2021/03/29 02:26:06;;;;;;;6.55;3.17;;;10.00;99.90;;;;;;5015674;28;20566;-76
2021/03/29 02:28:32;;;;;;;11.82;2.78;;;10.00;99.90;;;;;;5015595;28;20225;-77
2021/03/29 02:31:00;;;;;;;9.73;3.30;;;10.00;99.90;;;;;;5032608;28;20219;-76
2021/03/29 02:33:27;;;;;;;11.77;3.10;;;10.10;99.90;;;;;;4999337;28;20191;-76
2021/03/29 02:35:53;;;;;;;13.40;3.20;;;10.00;99.90;;;;;;5015412;28;20200;-75
2021/03/29 02:38:19;;;;;;;7.80;2.90;;;10.00;99.90;;;;;;5032941;28;20639;-76
2021/03/29 02:40:49;;;;;;;10.98;2.67;;;10.00;99.90;;;;;;5032722;28;20597;-76
2021/03/29 02:43:16;;;;;;;9.77;4.07;;;10.00;99.90;;;;;;5032765;28;20172;-76
2021/03/29 02:46:03;;;;;;;8.82;3.20;;;10.00;99.90;;;;;;5033172;28;20203;-76
2021/03/29 02:48:34;;;;;;;12.23;3.38;;;10.00;99.90;;;;;;5031205;28;20168;-76
2021/03/29 02:51:04;;;;;;;10.77;3.22;;;10.00;99.90;;;;;;5015469;28;20257;-76
2021/03/29 02:53:32;;;;;;;15.07;3.15;;;10.00;99.90;;;;;;5033073;28;20172;-76
2021/03/29 02:56:14;;;;;;;6.15;3.25;;;10.00;99.90;;;;;;5036897;28;20222;-76
2021/03/29 02:58:43;;;;;;;6.85;3.28;;;9.90;99.90;;;;;;5036506;28;20237;-76
2021/03/29 03:07:26;;;;;;;7.00;3.53;;;9.80;99.90;;;;;;5036288;28;20187;-76
2021/03/29 03:09:52;;;;;;;4.78;2.78;;;9.90;99.90;;;;;;5033888;28;20211;-76
2021/03/29 03:12:18;;;;;;;9.68;3.40;;;9.90;99.90;;;;;;5034581;28;20556;-76
2021/03/29 03:14:43;;;;;;;11.90;3.72;;;10.00;99.90;;;;;;5021639;28;20179;-76
2021/03/29 03:17:09;;;;;;;7.65;3.65;;;9.90;99.90;;;;;;5037733;28;20647;-76
2021/03/29 03:19:35;;;;;;;10.25;3.40;;;9.90;99.90;;;;;;5048170;28;20183;-76
2021/03/29 03:22:00;;;;;;;11.05;3.55;;;9.90;99.90;;;;;;5018490;28;20168;-76
2021/03/29 03:24:35;;;;;;;7.65;2.92;;;9.90;99.90;;;;;;5018313;28;20576;-76
2021/03/29 03:27:06;;;;;;;7.65;3.42;;;9.90;99.90;;;;;;5035118;28;20187;-75
2021/03/29 03:29:33;;;;;;;15.80;3.90;;;9.80;99.90;;;;;;5035553;28;20165;-76
2021/03/29 03:32:00;;;;;;;9.23;3.67;;;9.80;99.90;;;;;;5034909;28;20167;-77
2021/03/29 03:34:26;;;;;;;13.25;4.00;;;9.80;99.90;;;;;;5035958;28;20165;-76
2021/03/29 03:36:52;;;;;;;6.88;3.47;;;9.80;99.90;;;;;;5035850;28;20172;-76
2021/03/29 03:39:19;;;;;;;11.90;3.40;;;9.70;99.90;;;;;;5035276;28;20169;-75
2021/03/29 03:41:45;;;;;;;9.75;3.25;;;9.70;99.90;;;;;;5036046;28;20234;-76
2021/03/29 03:44:11;;;;;;;7.95;3.25;;;9.70;99.90;;;;;;5035823;28;20168;-76
2021/03/29 03:46:42;;;;;;;10.55;3.53;;;9.70;99.90;;;;;;5017762;28;20541;-76
2021/03/29 03:49:12;;;;;;;11.73;3.88;;;9.70;99.90;;;;;;5035469;28;20173;-76
2021/03/29 03:51:38;;;;;;;5.95;3.15;;;9.70;99.90;;;;;;5017374;28;20659;-75
2021/03/29 03:54:07;;;;;;;13.77;3.50;;;9.70;99.90;;;;;;5035916;28;20187;-76
2021/03/29 03:56:33;;;;;;;8.80;3.17;;;9.70;99.90;;;;;;5017831;28;20667;-75
2021/03/29 03:58:59;;;;;;;21.25;4.13;;;9.60;99.90;;;;;;5035158;28;20176;-76
2021/03/29 04:01:26;;;;;;;13.10;2.95;;;9.60;99.90;;;;;;5035002;28;20184;-76
2021/03/29 04:03:52;;;;;;;10.63;3.15;;;9.60;99.90;;;;;;5017667;28;20164;-76
2021/03/29 04:06:18;;;;;;;12.70;3.80;;;9.60;99.90;;;;;;5034148;28;20179;-75
2021/03/29 04:08:45;;;;;;;16.08;3.90;;;9.60;99.90;;;;;;5017276;28;20180;-75
2021/03/29 04:11:12;;;;;;;7.70;3.35;;;9.60;99.90;;;;;;5035237;28;20584;-76
2021/03/29 04:13:38;;;;;;;12.52;4.03;;;9.60;99.90;;;;;;5016899;28;20168;-76
2021/03/29 04:16:08;;;;;;;11.98;3.70;;;9.60;99.90;;;;;;5017353;28;20222;-76
2021/03/29 04:18:34;;;;;;;9.98;3.80;;;9.60;99.90;;;;;;5034733;28;20346;-76
2021/03/29 04:21:01;;;;;;;9.45;3.50;;;9.60;99.90;;;;;;5034829;28;20165;-76
2021/03/29 04:23:30;;;;;;;8.30;3.90;;;9.60;99.90;;;;;;5016853;28;20190;-76
2021/03/29 04:25:56;;;;;;;11.15;3.65;;;9.50;99.90;;;;;;5017080;28;20179;-76
2021/03/29 04:28:22;;;;;;;11.02;3.80;;;9.50;99.90;;;;;;5034676;28;20218;-76
2021/03/29 04:30:48;;;;;;;9.70;3.13;;;9.40;99.90;;;;;;5034303;28;20668;-77
2021/03/29 04:33:14;;;;;;;16.50;3.83;;;9.40;99.90;;;;;;5016587;28;20176;-75
2021/03/29 04:35:41;;;;;;;6.82;3.58;;;9.40;99.90;;;;;;5034782;28;20523;-76
2021/03/29 04:38:07;;;;;;;12.90;4.00;;;9.40;99.90;;;;;;5017091;28;20172;-75
2021/03/29 04:40:32;;;;;;;16.67;3.90;;;9.40;99.90;;;;;;5037044;28;20181;-76
2021/03/29 04:42:58;;;;;;;20.33;3.85;;;9.40;99.90;;;;;;5025905;28;20522;-76
2021/03/29 04:45:25;;;;;;;15.02;4.25;;;9.40;99.90;;;;;;5000043;28;20322;-76
2021/03/29 04:47:50;;;;;;;7.75;3.33;;;9.30;99.90;;;;;;5034340;28;20168;-76
2021/03/29 04:50:18;;;;;;;14.15;4.10;;;9.30;99.90;;;;;;5016467;28;20211;-76
2021/03/29 04:52:45;;;;;;;16.55;3.72;;;9.20;99.90;;;;;;5016614;28;20175;-75
2021/03/29 04:55:13;;;;;;;14.60;3.58;;;9.20;99.90;;;;;;5033906;28;20577;-75
2021/03/29 04:57:39;;;;;;;10.45;3.60;;;9.20;99.90;;;;;;5034231;28;20176;-76
2021/03/29 05:00:06;;;;;;;11.18;3.13;;;9.20;99.90;;;;;;5033997;28;20590;-76
2021/03/29 05:02:33;;;;;;;13.70;3.45;;;9.20;99.90;;;;;;5033987;28;20298;-76
2021/03/29 05:04:59;;;;;;;10.35;3.40;;;9.10;99.90;;;;;;5033731;28;20192;-76
2021/03/29 05:07:25;;;;;;;13.20;3.35;;;9.20;99.90;;;;;;5016333;28;20203;-76
2021/03/29 05:09:51;;;;;;;9.45;3.20;;;9.20;99.90;;;;;;5015806;28;20199;-77
2021/03/29 05:12:22;;;;;;;13.75;3.45;;;9.20;99.90;;;;;;5016207;28;20179;-76
2021/03/29 05:14:47;;;;;;;9.95;3.60;;;9.20;99.90;;;;;;5033931;28;20633;-76
2021/03/29 05:17:13;;;;;;;8.32;3.17;;;9.20;99.90;;;;;;5033258;28;20195;-75
2021/03/29 05:19:39;;;;;;;7.90;3.45;;;9.20;99.90;;;;;;5033753;28;20206;-76
2021/03/29 05:22:06;;;;;;;5.32;2.45;;;9.20;99.90;;;;;;5034161;28;20176;-75
2021/03/29 05:24:32;;;;;;;10.43;3.08;;;9.30;99.90;;;;;;5016080;28;20528;-76
2021/03/29 05:26:58;;;;;;;14.30;3.63;;;9.30;99.90;;;;;;5016128;28;20255;-76
2021/03/29 05:29:27;;;;;;;10.45;3.40;;;9.40;99.90;;;;;;5033421;28;20258;-75
2021/03/29 05:31:56;;;;;;;14.38;3.83;;;9.50;99.90;;;;;;5034150;28;20694;-76
2021/03/29 05:34:24;;;;;;;8.18;3.10;;;9.50;99.90;;;;;;5015816;28;20188;-76
2021/03/29 05:36:50;;;;;;;10.05;3.13;;;9.40;99.90;;;;;;5015700;28;20262;-76
2021/03/29 05:39:16;;;;;;;12.07;3.10;;;9.40;99.90;;;;;;5015274;28;20187;-77
2021/03/29 05:41:42;;;;;;;14.45;3.20;;;9.40;99.90;;;;;;5030030;28;20174;-76
2021/03/29 05:44:09;;;;;;;12.32;3.00;;;9.50;99.90;;;;;;5042702;28;20234;-76
2021/03/29 05:46:41;;;;;;;11.23;3.65;;;9.60;99.90;;;;;;5033536;28;20259;-75
2021/03/29 05:49:08;;;;;;;10.20;3.30;;;9.70;99.90;;;;;;5015486;28;20176;-75
2021/03/29 05:51:37;;;;;;;9.38;3.08;;;9.70;99.90;;;;;;5033346;28;20202;-76
2021/03/29 05:54:05;;;;;;;12.00;4.10;;;9.80;99.90;;;;;;5015575;28;20176;-76
2021/03/29 05:56:33;;;;;;;10.70;3.25;;;10.00;99.90;;;;;;5033190;28;20160;-76
2021/03/29 05:59:15;;;;;;;9.35;2.88;;;10.00;99.90;;;;;;5015357;28;20587;-75
2021/03/29 06:01:52;;;;;;;5.28;3.00;;;10.10;99.90;;;;;;5033445;28;20163;-76
2021/03/29 06:04:44;;;;;;;8.02;3.00;;;10.20;99.90;;;;;;5015605;28;20172;-76
2021/03/29 06:07:12;;;;;;;6.95;2.75;;;10.30;99.90;;;;;;5015192;28;20165;-76
2021/03/29 06:09:38;;;;;;;9.70;3.15;;;10.30;99.90;;;;;;5032751;28;20199;-76
2021/03/29 06:12:04;;;;;;;5.38;2.75;;;10.30;99.90;;;;;;5052993;28;20175;-76
2021/03/29 06:14:30;;;;;;;5.95;3.13;;;10.40;99.90;;;;;;5035242;28;20167;-76
2021/03/29 06:17:01;;;;;;;14.88;3.20;;;10.50;99.90;;;;;;5018880;28;20218;-76
2021/03/29 06:19:43;;;;;;;9.52;3.17;;;10.60;99.90;;;;;;5022920;28;20200;-77
2021/03/29 06:22:28;;;;;;;9.82;3.33;;;10.70;99.90;;;;;;5015583;28;20183;-76
2021/03/29 06:25:15;;;;;;;11.00;3.05;;;10.80;99.90;;;;;;5015057;28;20186;-76
2021/03/29 06:27:47;;;;;;;9.88;3.58;;;10.90;99.90;;;;;;5015382;28;20174;-77
2021/03/29 06:30:15;;;;;;;12.35;3.85;;;11.00;99.90;;;;;;5017680;28;20203;-76
2021/03/29 06:33:00;;;;;;;13.85;3.35;;;11.10;99.90;;;;;;5037109;28;20180;-76
2021/03/29 06:35:40;;;;;;;9.05;3.35;;;11.10;99.90;;;;;;5019046;28;20192;-75
2021/03/29 06:38:09;;;;;;;8.60;3.35;;;11.20;99.90;;;;;;5036761;28;20176;-76
2021/03/29 06:40:36;;;;;;;9.20;3.42;;;11.30;99.90;;;;;;5035635;28;20179;-76
2021/03/29 06:43:20;;;;;;;9.13;3.88;;;11.30;99.90;;;;;;5036979;28;20188;-75
2021/03/29 06:45:47;;;;;;;13.95;3.92;;;11.40;99.90;;;;;;5019205;28;20182;-75
2021/03/29 06:48:34;;;;;;;12.88;3.55;;;11.50;99.90;;;;;;5036506;28;20255;-76
2021/03/29 06:51:10;;;;;;;13.02;3.47;;;11.70;99.90;;;;;;4999171;28;20194;-75
2021/03/29 06:53:37;;;;;;;10.95;3.55;;;11.80;99.90;;;;;;5016857;28;20525;-76
2021/03/29 06:56:33;;;;;;;20.48;3.17;;;12.00;99.90;;;;;;4999257;28;20161;-76
2021/03/29 06:59:05;;;;;;;7.55;3.28;;;12.20;99.90;;;;;;4997317;28;20221;-76
2021/03/29 07:01:36;;;;;;;13.75;3.63;;;12.40;99.90;;;;;;5036485;28;20172;-76
2021/03/29 07:04:05;;;;;;;15.93;4.18;;;12.70;99.90;;;;;;5018803;28;20164;-76
2021/03/29 07:06:34;;;;;;;10.10;3.45;;;13.20;99.90;;;;;;5034131;28;20182;-76
2021/03/29 07:09:07;;;;;;;8.60;3.72;;;14.00;99.90;;;;;;5018042;28;20199;-75
2021/03/29 07:11:34;;;;;;;15.88;3.22;;;15.10;99.90;;;;;;5036216;28;20196;-76
2021/03/29 07:14:02;;;;;;;11.18;4.82;;;16.10;99.90;;;;;;5035246;28;20168;-76
2021/03/29 07:16:28;;;;;;;11.13;4.90;;;16.90;99.90;;;;;;5036245;28;20529;-76
2021/03/29 07:19:03;;;;;;;14.18;4.93;;;17.30;99.90;;;;;;5035844;28;20593;-76
2021/03/29 07:21:29;;;;;;;11.90;4.25;;;18.50;99.90;;;;;;5018082;28;20183;-75
2021/03/29 07:24:07;;;;;;;12.18;3.40;;;20.50;99.90;;;;;;5018206;28;20226;-77
2021/03/29 07:26:45;;;;;;;13.05;3.47;;;21.60;99.90;;;;;;5035981;28;20655;-76
2021/03/29 07:29:23;;;;;;;8.35;3.40;;;22.90;99.90;;;;;;5033365;28;20518;-75
2021/03/29 07:32:00;;;;;;;9.32;3.17;;;23.90;99.90;;;;;;5048501;28;20595;-75
2021/03/29 07:34:41;;;;;;;15.63;3.13;;;24.50;99.90;;;;;;5055388;28;20178;-76
2021/03/29 07:37:30;;;;;;;9.25;3.47;;;24.80;99.90;;;;;;5035728;28;20168;-77
2021/03/29 07:39:58;;;;;;;20.60;3.80;;;24.90;98.90;;;;;;5017994;28;20184;-75
2021/03/29 07:42:24;;;;;;;9.25;3.15;;;25.50;97.00;;;;;;5019377;28;20226;-75
2021/03/29 07:45:14;;;;;;;10.95;2.80;;;25.40;96.00;;;;;;5037369;28;20172;-75
2021/03/29 07:47:53;;;;;;;9.52;3.03;;;25.80;95.60;;;;;;5009057;28;20206;-76
2021/03/29 07:50:25;;;;;;;9.13;2.85;;;26.30;95.30;;;;;;5035499;28;20543;-76
2021/03/29 07:53:20;;;;;;;12.20;3.22;;;27.20;92.90;;;;;;5035595;28;20222;-76
2021/03/29 07:55:50;;;;;;;8.95;3.03;;;27.00;92.10;;;;;;5035102;28;20172;-76
2021/03/29 07:58:20;;;;;;;9.35;3.38;;;26.80;92.80;;;;;;5035511;28;20167;-76
2021/03/29 08:00:49;;;;;;;8.13;3.20;;;26.60;92.90;;;;;;5034447;28;20183;-76
2021/03/29 08:03:14;;;;;;;8.50;3.10;;;26.90;92.90;;;;;;5037107;28;20255;-76
2021/03/29 08:05:45;;;;;;;9.30;3.00;;;27.70;91.90;;;;;;5024449;28;20313;-76
2021/03/29 08:08:33;;;;;;;9.93;3.10;;;28.30;90.30;;;;;;5051046;28;20633;-76
2021/03/29 08:11:18;;;;;;;7.38;3.25;;;28.30;90.10;;;;;;5035173;28;20211;-76
2021/03/29 08:13:47;;;;;;;7.40;3.15;;;29.00;88.70;;;;;;5017050;28;20176;-76
2021/03/29 08:16:21;;;;;;;8.70;3.67;;;29.00;87.50;;;;;;5021017;28;20183;-76
2021/03/29 08:19:11;;;;;;;6.15;3.08;;;29.40;86.20;;;;;;5035035;28;20639;-76
2021/03/29 08:21:58;;;;;;;9.60;4.95;;;29.50;84.80;;;;;;5013881;28;20179;-76
2021/03/29 08:24:35;;;;;;;10.90;7.53;;;29.70;85.50;;;;;;5039663;28;20172;-76
2021/03/29 08:27:14;;;;;;;25.77;18.95;;;30.00;83.40;;;;;;5043667;28;20561;-75
2021/03/29 08:29:44;;;;;;;15.05;9.05;;;30.30;80.70;;;;;;5036392;28;20711;-76
2021/03/29 08:32:10;;;;;;;7.20;2.92;;;29.80;83.40;;;;;;5044876;28;20176;-76
2021/03/29 08:34:40;;;;;;;3.85;2.33;;;30.10;82.20;;;;;;5034496;28;20180;-76
2021/03/29 08:37:07;;;;;;;11.10;8.52;;;30.40;80.50;;;;;;5024319;28;20187;-76
2021/03/29 08:39:45;;;;;;;10.68;4.68;;;29.90;80.90;;;;;;5047342;28;20686;-76
2021/03/29 08:42:16;;;;;;;7.10;3.40;;;30.00;79.80;;;;;;5016200;28;20195;-76
2021/03/29 08:44:43;;;;;;;11.40;3.42;;;29.70;78.80;;;;;;5034511;28;20234;-76
2021/03/29 08:47:29;;;;;;;6.55;2.88;;;29.70;81.00;;;;;;5034091;28;20172;-76
2021/03/29 08:50:01;;;;;;;8.60;3.05;;;29.80;79.70;;;;;;5034601;28;20192;-76
2021/03/29 08:52:48;;;;;;;4.78;2.10;;;29.70;79.10;;;;;;5016246;28;20171;-76
2021/03/29 08:55:22;;;;;;;4.03;2.33;;;29.50;80.40;;;;;;5033995;28;20180;-75
2021/03/29 08:57:50;;;;;;;5.85;2.75;;;29.70;77.70;;;;;;5009882;28;20521;-75
2021/03/29 09:00:18;;;;;;;5.82;2.28;;;30.10;78.30;;;;;;5030915;28;20299;-76
2021/03/29 09:02:44;;;;;;;9.20;2.70;;;29.70;77.00;;;;;;5032533;28;20171;-75
2021/03/29 09:05:12;;;;;;;4.45;2.42;;;29.70;78.50;;;;;;5033935;28;20172;-76
2021/03/29 09:07:42;;;;;;;7.10;3.40;;;30.20;78.60;;;;;;5034007;28;20168;-76
2021/03/29 09:10:20;;;;;;;9.20;3.10;;;30.30;75.40;;;;;;5016013;28;20745;-76
2021/03/29 09:12:59;;;;;;;6.07;2.40;;;29.50;75.60;;;;;;5033989;28;20207;-75
2021/03/29 09:15:39;;;;;;;10.27;3.00;;;30.20;76.60;;;;;;5002730;28;20167;-75
2021/03/29 09:18:07;;;;;;;6.20;3.00;;;30.80;74.10;;;;;;5016397;28;20270;-75
2021/03/29 09:20:46;;;;;;;4.47;2.63;;;31.60;71.10;;;;;;5033337;28;20271;-75
2021/03/29 09:23:13;;;;;;;6.68;2.92;;;31.00;71.00;;;;;;5033407;28;20246;-75
2021/03/29 09:25:44;;;;;;;3.80;2.40;;;30.00;73.30;;;;;;5033951;28;20164;-75
2021/03/29 09:31:26;;;;;;;6.20;2.20;;;29.90;72.90;;;;;;5033122;28;20214;-75
2021/03/29 09:33:53;;;;;;;5.90;2.58;;;30.60;72.70;;;;;;5031613;28;20188;-75
2021/03/29 09:36:20;;;;;;;8.38;2.47;;;31.20;72.10;;;;;;5033608;28;20176;-75
2021/03/29 09:38:50;;;;;;;5.32;2.55;;;31.50;73.70;;;;;;5033448;28;20237;-75
2021/03/29 09:41:17;;;;;;;6.60;2.42;;;32.10;71.40;;;;;;5015738;28;20176;-75
2021/03/29 09:43:44;;;;;;;4.90;2.67;;;31.70;69.10;;;;;;5022294;28;20229;-76
2021/03/29 09:46:10;;;;;;;7.13;2.75;;;31.70;70.80;;;;;;5053240;28;20640;-75
2021/03/29 09:48:36;;;;;;;5.90;2.42;;;31.00;71.10;;;;;;5029411;28;20188;-76
2021/03/29 09:51:01;;;;;;;5.88;2.47;;;31.50;72.50;;;;;;5032944;28;20234;-75
2021/03/29 09:53:33;;;;;;;5.38;2.72;;;31.80;71.20;;;;;;4999320;28;20536;-75
2021/03/29 09:56:02;;;;;;;9.27;2.90;;;32.50;71.10;;;;;;5015639;28;20167;-76
2021/03/29 09:58:30;;;;;;;5.95;2.83;;;32.30;68.20;;;;;;5033196;28;20164;-76
2021/03/29 10:01:02;;;;;;;6.07;2.95;;;31.80;67.80;;;;;;5033137;28;20206;-76
2021/03/29 10:03:29;;;;;;;6.25;2.80;;;31.40;67.50;;;;;;5032492;28;20175;-76
2021/03/29 10:05:56;;;;;;;9.35;2.97;;;31.80;68.30;;;;;;5013145;28;20184;-76
2021/03/29 10:08:33;;;;;;;7.93;2.63;;;32.10;67.70;;;;;;5013479;28;20184;-75
2021/03/29 10:11:01;;;;;;;4.53;2.33;;;32.20;67.80;;;;;;5008031;28;20211;-75
2021/03/29 10:13:45;;;;;;;5.28;2.60;;;32.50;66.30;;;;;;5034421;28;20221;-75
2021/03/29 10:16:19;;;;;;;5.05;2.30;;;32.10;66.10;;;;;;5053140;28;20182;-75
2021/03/29 10:18:45;;;;;;;5.97;2.83;;;31.80;64.60;;;;;;5034897;28;20758;-75
2021/03/29 10:21:12;;;;;;;8.13;2.65;;;32.40;65.10;;;;;;5038947;28;20203;-75
2021/03/29 10:23:41;;;;;;;5.28;2.50;;;32.10;64.20;;;;;;5036161;28;20171;-75
2021/03/29 10:26:18;;;;;;;6.15;2.83;;;31.80;64.50;;;;;;5051189;28;20521;-75
2021/03/29 10:28:58;;;;;;;6.80;3.22;;;32.10;63.70;;;;;;5033148;28;20160;-75
2021/03/29 10:31:24;;;;;;;8.70;2.65;;;32.20;64.90;;;;;;5033101;28;20203;-76
2021/03/29 10:33:50;;;;;;;4.03;2.42;;;33.20;65.00;;;;;;5032295;28;20172;-76
2021/03/29 10:36:20;;;;;;;4.45;2.47;;;32.30;63.50;;;;;;5015359;28;20259;-75
2021/03/29 10:38:47;;;;;;;4.00;2.83;;;31.90;64.90;;;;;;5032953;28;20682;-75
2021/03/29 10:41:13;;;;;;;6.47;2.28;;;32.20;64.10;;;;;;5032985;28;20198;-75
2021/03/29 10:43:39;;;;;;;7.50;2.53;;;32.20;63.50;;;;;;5021420;28;20271;-75
2021/03/29 10:46:05;;;;;;;7.07;3.08;;;32.40;63.80;;;;;;5052337;28;20179;-75
2021/03/29 10:48:31;;;;;;;11.15;3.38;;;32.50;64.80;;;;;;5052703;28;20166;-75
2021/03/29 10:50:59;;;;;;;6.25;2.22;;;33.20;65.50;;;;;;5052753;28;20562;-75
2021/03/29 10:53:25;;;;;;;4.57;2.13;;;33.90;62.50;;;;;;5036627;28;20179;-75
2021/03/29 10:55:50;;;;;;;5.78;2.42;;;33.80;62.20;;;;;;5032876;28;20168;-76
2021/03/29 10:58:16;;;;;;;6.28;2.38;;;33.50;62.30;;;;;;5015010;28;20647;-75
2021/03/29 11:00:42;;;;;;;3.97;2.20;;;33.00;62.70;;;;;;5038227;28;20168;-76
2021/03/29 11:03:08;;;;;;;5.70;2.83;;;32.70;63.70;;;;;;5043782;28;20183;-76
2021/03/29 11:05:33;;;;;;;9.25;2.78;;;32.60;64.10;;;;;;5032910;28;20168;-76
2021/03/29 11:07:59;;;;;;;5.60;2.60;;;32.20;62.80;;;;;;5032749;28;20651;-75
2021/03/29 11:10:24;;;;;;;5.47;2.40;;;32.40;65.60;;;;;;5032485;28;20696;-76
2021/03/29 11:12:50;;;;;;;6.53;2.85;;;32.60;62.20;;;;;;5032009;28;20222;-75
2021/03/29 11:15:16;;;;;;;5.85;2.55;;;32.60;63.00;;;;;;5033293;28;20180;-76
2021/03/29 11:17:41;;;;;;;6.35;2.63;;;32.40;62.70;;;;;;5036005;28;20253;-76
2021/03/29 11:20:07;;;;;;;8.93;2.58;;;32.60;64.10;;;;;;5035029;28;20175;-76
2021/03/29 11:22:33;;;;;;;11.73;2.50;;;33.20;61.80;;;;;;5036717;28;20199;-75
2021/03/29 11:25:00;;;;;;;5.22;2.53;;;33.00;61.50;;;;;;5036035;28;20172;-75
2021/03/29 11:27:25;;;;;;;5.38;2.83;;;32.70;61.80;;;;;;5017396;28;20191;-76
2021/03/29 11:29:51;;;;;;;8.02;3.05;;;33.10;63.90;;;;;;5035869;28;20197;-75
2021/03/29 11:32:17;;;;;;;9.15;2.88;;;32.80;61.10;;;;;;5040438;28;20202;-76
2021/03/29 11:34:43;;;;;;;4.05;2.55;;;33.20;59.70;;;;;;5038042;28;20510;-76
2021/03/29 11:37:10;;;;;;;2.65;2.10;;;32.10;63.80;;;;;;5047305;28;20172;-76
2021/03/29 11:39:36;;;;;;;8.75;2.88;;;31.90;63.00;;;;;;5035925;28;20176;-75
2021/03/29 11:42:02;;;;;;;4.78;2.58;;;32.30;63.10;;;;;;5018921;28;20183;-77
2021/03/29 11:44:28;;;;;;;4.35;2.00;;;32.60;64.20;;;;;;5035686;28;20701;-76
2021/03/29 11:46:53;;;;;;;8.65;3.05;;;32.70;61.70;;;;;;5035161;28;20255;-76
2021/03/29 11:49:19;;;;;;;6.13;2.47;;;32.30;61.40;;;;;;5034598;28;20176;-76
2021/03/29 11:51:44;;;;;;;9.18;3.28;;;32.30;62.10;;;;;;5035243;28;20219;-76
2021/03/29 11:54:10;;;;;;;7.72;2.65;;;32.50;62.90;;;;;;5021242;28;20168;-75
2021/03/29 11:56:37;;;;;;;10.32;3.13;;;32.60;61.60;;;;;;5017532;28;20180;-75
2021/03/29 11:59:03;;;;;;;9.02;3.28;;;32.60;62.10;;;;;;5035406;28;20177;-76
2021/03/29 12:01:45;;;;;;;4.63;2.72;;;32.70;63.50;;;;;;5035208;28;20569;-76
2021/03/29 12:04:19;;;;;;;4.57;2.83;;;31.70;63.30;;;;;;5033812;28;20651;-75
2021/03/29 12:06:57;;;;;;;10.43;2.92;;;32.30;64.30;;;;;;5035418;28;20167;-75
2021/03/29 12:09:38;;;;;;;7.38;2.58;;;32.10;63.40;;;;;;5017069;28;20558;-75
2021/03/29 12:12:06;;;;;;;4.43;2.63;;;31.50;63.70;;;;;;5035175;28;20601;-75
2021/03/29 12:14:34;;;;;;;6.70;2.78;;;31.50;62.90;;;;;;4997772;28;20172;-75
2021/03/29 12:17:01;;;;;;;9.07;3.13;;;30.90;63.60;;;;;;5016508;28;20255;-75
2021/03/29 12:19:28;;;;;;;9.75;3.25;;;31.00;65.00;;;;;;5035103;28;20628;-76
2021/03/29 12:21:57;;;;;;;7.45;2.70;;;31.10;66.60;;;;;;5016934;28;20180;-77
2021/03/29 12:24:28;;;;;;;7.13;2.83;;;30.40;65.50;;;;;;5035286;28;20175;-75
2021/03/29 12:26:54;;;;;;;11.27;2.83;;;29.90;64.40;;;;;;5022933;28;20620;-75
2021/03/29 12:29:37;;;;;;;6.30;3.03;;;29.30;67.90;;;;;;5017428;28;20172;-75
2021/03/29 12:32:04;;;;;;;7.90;3.47;;;29.30;67.60;;;;;;5034964;28;20291;-75
2021/03/29 12:34:30;;;;;;;9.02;2.83;;;29.30;66.90;;;;;;5021592;28;20213;-75
2021/03/29 12:36:56;;;;;;;6.82;3.33;;;29.10;66.00;;;;;;5034303;28;20547;-75
2021/03/29 12:39:48;;;;;;;7.75;3.20;;;28.50;67.20;;;;;;5034454;28;20545;-76
2021/03/29 12:42:12;;;;;;;10.45;3.53;;;28.10;69.30;;;;;;5034371;28;20222;-75
2021/03/29 12:44:38;;;;;;;4.85;2.72;;;27.30;71.00;;;;;;5051587;28;20168;-74
2021/03/29 12:47:06;;;;;;;11.98;2.92;;;25.70;71.50;;;;;;5054340;28;20691;-75
2021/03/29 12:49:32;;;;;;;6.15;3.45;;;24.60;75.80;;;;;;5036357;28;20174;-75
2021/03/29 12:51:59;;;;;;;7.18;3.22;;;24.00;75.10;;;;;;5054180;28;20211;-75
2021/03/29 12:54:31;;;;;;;6.60;4.05;;;23.80;77.00;;;;;;5039966;28;20529;-74
2021/03/29 12:56:58;;;;;;;9.07;3.80;;;24.00;78.20;;;;;;5034514;28;20175;-75
2021/03/29 12:59:29;;;;;;;10.32;3.42;;;24.10;77.50;;;;;;5016409;28;20178;-75
2021/03/29 13:01:55;;;;;;;7.47;3.78;;;23.80;79.20;;;;;;5034186;28;20183;-75
2021/03/29 13:04:32;;;;;;;9.15;4.03;;;23.30;80.70;;;;;;5016675;28;20221;-75
2021/03/29 13:07:14;;;;;;;6.13;3.45;;;22.90;80.50;;;;;;5034059;28;20213;-75